createdAt,value
2023-04-29T00:01:20.783Z,97607.31
2023-04-29T00:05:22.927Z,97602.38
2023-04-29T00:09:25.021Z,97606.25
2023-04-29T00:13:27.118Z,97609.97
2023-04-29T00:17:29.222Z,97616.22
2023-04-29T00:21:33.197Z,97621.81
2023-04-29T00:25:35.371Z,97617.72
2023-04-29T00:29:37.438Z,97619.72
2023-04-29T00:33:40.785Z,97613.78
2023-04-29T00:37:43.207Z,97616.81
2023-04-29T00:41:45.241Z,97612.56
2023-04-29T00:45:47.356Z,97617.88
2023-04-29T00:49:49.756Z,97612.56
2023-04-29T00:53:51.942Z,97617.63
2023-04-29T00:57:54.029Z,97609.63
2023-04-29T01:01:56.225Z,97611.25
2023-04-29T01:06:20.098Z,97617.88
2023-04-29T01:10:28.224Z,97617.25
2023-04-29T01:14:33.515Z,97621.75
2023-04-29T01:18:49.736Z,97621.72
2023-04-29T01:22:54.113Z,97622.25
2023-04-29T01:27:02.353Z,97622.94
2023-04-29T01:32:03.370Z,97619.38
2023-04-29T01:36:17.595Z,97617.84
2023-04-29T01:40:33.940Z,97618.84
2023-04-29T01:44:43.734Z,97624.88
2023-04-29T01:48:46.879Z,97620.22
2023-04-29T01:52:49.285Z,97620.06
2023-04-29T01:56:52.172Z,97630.06
2023-04-29T02:01:04.802Z,97629.88
2023-04-29T02:05:09.825Z,97630.66
2023-04-29T02:09:15.719Z,97635.31
2023-04-29T02:13:24.404Z,97633.72
2023-04-29T02:17:26.543Z,97630.25
2023-04-29T02:21:28.646Z,97638.25
2023-04-29T02:25:30.817Z,97634.88
2023-04-29T02:29:34.224Z,97636.50
2023-04-29T02:33:36.313Z,97649.38
2023-04-29T02:37:38.640Z,97645.81
2023-04-29T02:41:42.077Z,97644.47
2023-04-29T02:45:46.528Z,97645.09
2023-04-29T02:49:48.711Z,97655.00
2023-04-29T02:53:51.120Z,97660.34
2023-04-29T02:57:53.198Z,97671.25
2023-04-29T03:01:55.235Z,97667.06
2023-04-29T03:05:57.253Z,97661.81
2023-04-29T03:09:59.456Z,97667.06
2023-04-29T03:14:01.496Z,97666.22
2023-04-29T03:18:04.937Z,97670.78
2023-04-29T03:22:11.538Z,97664.00
2023-04-29T03:26:14.991Z,97667.53
2023-04-29T03:30:17.615Z,97674.72
2023-04-29T03:34:24.690Z,97665.78
2023-04-29T03:38:42.132Z,97667.91
2023-04-29T03:42:44.279Z,97673.63
2023-04-29T03:46:46.415Z,97679.78
2023-04-29T03:50:48.651Z,97675.13
2023-04-29T03:54:51.109Z,97673.16
2023-04-29T03:58:53.499Z,97673.47
2023-04-29T04:02:58.925Z,97674.00
2023-04-29T04:07:01.336Z,97677.06
2023-04-29T04:11:09.906Z,97692.31
2023-04-29T04:15:17.377Z,97701.09
2023-04-29T04:19:19.450Z,97702.16
2023-04-29T04:23:21.756Z,97699.75
2023-04-29T04:27:23.888Z,97710.66
2023-04-29T04:31:26.161Z,97713.59
2023-04-29T04:35:28.438Z,97714.88
2023-04-29T04:39:30.538Z,97717.75
2023-04-29T04:43:34.059Z,97716.13
2023-04-29T04:47:37.392Z,97723.91
2023-04-29T04:51:47.317Z,97729.47
2023-04-29T04:55:49.888Z,97720.88
2023-04-29T04:59:52.177Z,97730.91
2023-04-29T05:03:54.340Z,97738.09
2023-04-29T05:07:57.065Z,97745.34
2023-04-29T05:12:06.737Z,97740.94
2023-04-29T05:16:08.820Z,97753.03
2023-04-29T05:20:14.799Z,97756.34
2023-04-29T05:24:16.891Z,97760.22
2023-04-29T05:28:20.051Z,97764.34
2023-04-29T05:32:22.222Z,97764.19
2023-04-29T05:36:24.360Z,97766.81
2023-04-29T05:40:27.128Z,97771.50
2023-04-29T05:44:37.764Z,97778.22
2023-04-29T05:48:41.430Z,97789.63
2023-04-29T05:52:45.033Z,97795.50
2023-04-29T05:56:47.103Z,97803.16
2023-04-29T06:00:49.688Z,97802.72
2023-04-29T06:04:56.862Z,97807.91
2023-04-29T06:09:27.454Z,97810.66
2023-04-29T06:13:32.847Z,97822.47
2023-04-29T06:17:34.968Z,97829.22
2023-04-29T06:21:37.077Z,97839.72
2023-04-29T06:25:39.426Z,97844.97
2023-04-29T06:29:43.081Z,97846.66
2023-04-29T06:33:46.557Z,97857.31
2023-04-29T06:37:48.837Z,97861.09
2023-04-29T06:42:10.159Z,97873.06
2023-04-29T06:46:20.037Z,97867.88
2023-04-29T06:50:33.975Z,97880.78
2023-04-29T06:54:36.248Z,97884.56
2023-04-29T06:58:38.428Z,97888.94
2023-04-29T07:02:43.260Z,97885.47
2023-04-29T07:06:47.009Z,97891.38
2023-04-29T07:10:57.533Z,97897.72
2023-04-29T07:14:59.888Z,97911.00
2023-04-29T07:19:01.935Z,97916.97
2023-04-29T07:23:03.982Z,97914.03
2023-04-29T07:27:06.946Z,97913.13
2023-04-29T07:31:09.504Z,97922.53
2023-04-29T07:35:11.582Z,97925.66
2023-04-29T07:39:15.354Z,97928.06
2023-04-29T07:43:20.402Z,97929.34
2023-04-29T07:47:22.448Z,97932.00
2023-04-29T07:51:24.756Z,97946.13
2023-04-29T07:55:27.290Z,97941.91
2023-04-29T07:59:31.294Z,97943.56
2023-04-29T08:03:33.878Z,97948.13
2023-04-29T08:07:36.485Z,97956.28
2023-04-29T08:11:39.943Z,97961.78
2023-04-29T08:15:41.933Z,97963.59
2023-04-29T08:19:44.534Z,97970.06
2023-04-29T08:23:46.548Z,97970.63
2023-04-29T08:27:48.701Z,97976.75
2023-04-29T08:31:51.010Z,97981.25
2023-04-29T08:36:03.648Z,97980.47
2023-04-29T08:40:06.369Z,97982.63
2023-04-29T08:44:08.401Z,97990.06
2023-04-29T08:48:10.803Z,98003.00
2023-04-29T08:52:12.987Z,98000.19
2023-04-29T08:56:21.927Z,98005.78
2023-04-29T09:00:24.830Z,98001.72
2023-04-29T09:04:51.855Z,98007.31
2023-04-29T09:08:54.277Z,98009.91
2023-04-29T09:12:58.284Z,98010.22
2023-04-29T09:17:00.612Z,98018.72
2023-04-29T09:21:21.129Z,98035.56
2023-04-29T09:25:24.456Z,98033.81
2023-04-29T09:29:26.516Z,98033.47
2023-04-29T09:33:31.410Z,98029.03
2023-04-29T09:37:33.450Z,98023.84
2023-04-29T09:41:35.476Z,98019.78
2023-04-29T09:45:39.688Z,98023.03
2023-04-29T09:49:45.233Z,98021.16
2023-04-29T09:53:47.283Z,98031.78
2023-04-29T09:57:49.353Z,98028.56
2023-04-29T10:01:53.893Z,98018.88
2023-04-29T10:05:57.066Z,98023.19
2023-04-29T10:09:59.083Z,98027.00
2023-04-29T10:14:02.820Z,98027.06
2023-04-29T10:18:31.009Z,98038.63
2023-04-29T10:22:42.823Z,98035.19
2023-04-29T10:26:46.864Z,98036.72
2023-04-29T10:30:51.692Z,98035.06
2023-04-29T10:34:56.201Z,98029.44
2023-04-29T10:39:04.337Z,98021.63
2023-04-29T10:43:06.615Z,98023.97
2023-04-29T10:47:21.325Z,98030.09
2023-04-29T10:51:44.268Z,98026.63
2023-04-29T10:55:56.284Z,98023.69
2023-04-29T10:59:58.318Z,98032.72
2023-04-29T11:04:04.825Z,98034.78
2023-04-29T11:08:16.538Z,98037.50
2023-04-29T11:12:21.288Z,98046.53
2023-04-29T11:16:29.654Z,98052.34
2023-04-29T11:20:31.709Z,98052.41
2023-04-29T11:24:35.646Z,98057.88
2023-04-29T11:28:38.977Z,98053.22
2023-04-29T11:32:42.789Z,98057.97
2023-04-29T11:36:46.359Z,98061.63
2023-04-29T11:40:50.466Z,98065.44
2023-04-29T11:44:54.431Z,98066.38
2023-04-29T11:48:58.108Z,98072.91
2023-04-29T11:53:00.234Z,98066.16
2023-04-29T11:57:04.838Z,98077.69
2023-04-29T12:01:07.111Z,98070.53
2023-04-29T12:05:09.512Z,98076.09
2023-04-29T12:09:12.339Z,98072.59
2023-04-29T12:13:15.637Z,98078.91
2023-04-29T12:17:18.041Z,98083.91
2023-04-29T12:21:21.928Z,98080.91
2023-04-29T12:25:28.068Z,98082.00
2023-04-29T12:29:31.679Z,98089.09
2023-04-29T12:33:34.587Z,98098.38
2023-04-29T12:37:36.621Z,98097.00
2023-04-29T12:41:40.280Z,98098.19
2023-04-29T12:45:42.779Z,98100.06
2023-04-29T12:49:46.534Z,98097.00
2023-04-29T12:53:48.539Z,98101.56
2023-04-29T12:57:50.807Z,98105.19
2023-04-29T13:01:52.834Z,98116.44
2023-04-29T13:05:55.111Z,98110.56
2023-04-29T13:09:57.258Z,98111.47
2023-04-29T13:13:59.264Z,98112.34
2023-04-29T13:18:01.990Z,98114.38
2023-04-29T13:22:04.071Z,98109.53
2023-04-29T13:26:06.285Z,98106.47
2023-04-29T13:30:09.136Z,98109.28
2023-04-29T13:34:11.174Z,98113.28
2023-04-29T13:38:13.337Z,98116.41
2023-04-29T13:42:15.913Z,98109.69
2023-04-29T13:46:20.721Z,98119.97
2023-04-29T13:51:13.913Z,98126.63
2023-04-29T13:54:55.525Z,98117.19
2023-04-29T14:03:07.528Z,98121.00
2023-04-29T14:07:09.618Z,98125.25
2023-04-29T14:11:11.691Z,98130.88
2023-04-29T14:15:13.990Z,98124.50
2023-04-29T14:19:16.128Z,98122.34
2023-04-29T14:23:18.144Z,98129.19
2023-04-29T14:27:21.590Z,98132.00
2023-04-29T14:31:28.435Z,98131.22
2023-04-29T14:35:31.526Z,98141.44
2023-04-29T14:39:33.695Z,98143.81
2023-04-29T14:43:35.855Z,98154.19
2023-04-29T14:47:38.046Z,98151.44
2023-04-29T14:51:40.119Z,98164.59
2023-04-29T14:55:42.234Z,98166.63
2023-04-29T14:59:44.419Z,98168.50
2023-04-29T15:03:46.582Z,98168.44
2023-04-29T15:07:48.759Z,98176.66
2023-04-29T15:11:50.779Z,98189.31
2023-04-29T15:15:52.848Z,98203.19
2023-04-29T15:19:54.972Z,98204.81
2023-04-29T15:23:57.271Z,98207.72
2023-04-29T15:27:59.537Z,98202.13
2023-04-29T15:32:01.688Z,98216.44
2023-04-29T15:36:04.353Z,98213.75
2023-04-29T15:40:07.091Z,98224.00
2023-04-29T15:44:09.084Z,98230.81
2023-04-29T15:48:11.104Z,98230.81
2023-04-29T15:52:13.583Z,98236.97
2023-04-29T15:56:15.798Z,98239.88
2023-04-29T16:00:18.468Z,98235.63
2023-04-29T16:04:20.519Z,98247.31
2023-04-29T16:08:22.918Z,98238.88
2023-04-29T16:12:25.137Z,98244.03
2023-04-29T16:16:27.318Z,98248.16
2023-04-29T16:20:29.390Z,98251.50
2023-04-29T16:24:31.438Z,98245.44
2023-04-29T16:28:33.464Z,98247.91
2023-04-29T16:32:35.628Z,98254.69
2023-04-29T16:36:37.778Z,98249.28
2023-04-29T16:40:39.855Z,98240.59
2023-04-29T16:44:41.864Z,98245.78
2023-04-29T16:48:43.973Z,98245.56
2023-04-29T16:52:46.033Z,98250.84
2023-04-29T16:56:50.226Z,98253.53
2023-04-29T17:00:53.598Z,98258.97
2023-04-29T17:04:55.754Z,98258.06
2023-04-29T17:08:58.101Z,98267.25
2023-04-29T17:13:00.135Z,98264.78
2023-04-29T17:17:02.152Z,98265.03
2023-04-29T17:21:04.345Z,98262.41
2023-04-29T17:25:09.046Z,98269.28
2023-04-29T17:29:12.484Z,98262.28
2023-04-29T17:33:14.588Z,98272.31
2023-04-29T17:37:17.562Z,98281.69
2023-04-29T17:41:19.752Z,98280.56
2023-04-29T17:45:21.775Z,98290.19
2023-04-29T17:49:23.806Z,98280.66
2023-04-29T17:53:26.693Z,98284.16
2023-04-29T17:57:28.851Z,98285.91
2023-04-29T18:01:34.704Z,98291.03
2023-04-29T18:05:36.757Z,98291.41
2023-04-29T18:09:38.820Z,98290.56
2023-04-29T18:13:41.282Z,98299.16
2023-04-29T18:17:43.786Z,98301.00
2023-04-29T18:21:45.854Z,98304.56
2023-04-29T18:25:48.335Z,98305.47
2023-04-29T18:29:51.234Z,98314.16
2023-04-29T18:33:53.598Z,98316.78
2023-04-29T18:37:55.668Z,98318.50
2023-04-29T18:41:58.081Z,98317.66
2023-04-29T18:46:00.348Z,98322.31
2023-04-29T18:50:03.679Z,98323.38
2023-04-29T18:54:05.677Z,98319.19
2023-04-29T18:58:07.835Z,98318.88
2023-04-29T19:02:09.910Z,98323.66
2023-04-29T19:06:13.055Z,98329.44
2023-04-29T19:10:15.177Z,98337.06
2023-04-29T19:14:17.235Z,98335.47
2023-04-29T19:18:21.305Z,98338.34
2023-04-29T19:22:23.480Z,98343.72
2023-04-29T19:26:25.709Z,98348.41
2023-04-29T19:30:27.689Z,98352.56
2023-04-29T19:34:30.021Z,98363.94
2023-04-29T19:38:32.090Z,98371.28
2023-04-29T19:42:34.156Z,98367.13
2023-04-29T19:46:36.316Z,98370.66
2023-04-29T19:50:38.569Z,98370.59
2023-04-29T19:54:40.870Z,98373.94
2023-04-29T19:58:42.947Z,98371.28
2023-04-29T20:02:45.116Z,98371.28
2023-04-29T20:06:47.372Z,98374.69
2023-04-29T20:10:49.521Z,98379.75
2023-04-29T20:14:51.850Z,98376.16
2023-04-29T20:18:53.856Z,98380.69
2023-04-29T20:22:58.080Z,98379.81
2023-04-29T20:27:00.249Z,98384.34
2023-04-29T20:31:02.247Z,98381.81
2023-04-29T20:35:05.638Z,98377.50
2023-04-29T20:39:09.301Z,98390.94
2023-04-29T20:43:11.338Z,98390.94
2023-04-29T20:47:13.371Z,98386.31
2023-04-29T20:51:15.509Z,98378.34
2023-04-29T20:55:17.563Z,98385.81
2023-04-29T20:59:19.580Z,98382.06
2023-04-29T21:03:22.521Z,98390.53
2023-04-29T21:07:24.574Z,98399.06
2023-04-29T21:11:26.620Z,98393.34
2023-04-29T21:15:29.402Z,98386.66
2023-04-29T21:19:31.688Z,98388.56
2023-04-29T21:23:33.680Z,98389.59
2023-04-29T21:27:36.415Z,98392.22
2023-04-29T21:31:38.559Z,98395.88
2023-04-29T21:35:42.174Z,98390.84
2023-04-29T21:39:44.340Z,98391.06
2023-04-29T21:43:48.471Z,98390.25
2023-04-29T21:47:51.801Z,98392.06
2023-04-29T21:51:55.077Z,98394.56
2023-04-29T21:55:57.081Z,98395.66
2023-04-29T21:59:59.362Z,98396.38
2023-04-29T22:04:01.400Z,98398.66
2023-04-29T22:08:07.084Z,98400.31
2023-04-29T22:12:09.245Z,98400.66
2023-04-29T22:16:11.836Z,98413.84
2023-04-29T22:20:14.566Z,98418.97
2023-04-29T22:24:16.583Z,98408.38
2023-04-29T22:28:18.635Z,98420.47
2023-04-29T22:32:20.669Z,98430.94
2023-04-29T22:36:22.788Z,98423.06
2023-04-29T22:40:24.861Z,98424.00
2023-04-29T22:44:26.950Z,98431.38
2023-04-29T22:48:28.986Z,98442.78
2023-04-29T22:52:32.652Z,98436.63
2023-04-29T22:56:34.706Z,98441.09
2023-04-29T23:00:36.703Z,98437.69
2023-04-29T23:04:38.744Z,98436.78
2023-04-29T23:08:40.806Z,98439.19
2023-04-29T23:12:43.025Z,98435.34
2023-04-29T23:16:45.354Z,98437.81
2023-04-29T23:20:47.804Z,98442.09
2023-04-29T23:24:49.953Z,98445.44
2023-04-29T23:28:51.947Z,98455.56
2023-04-29T23:32:54.016Z,98450.94
2023-04-29T23:36:56.059Z,98447.19
2023-04-29T23:40:58.040Z,98452.31
2023-04-29T23:45:00.055Z,98450.38
2023-04-29T23:49:02.054Z,98446.00
2023-04-29T23:53:04.075Z,98452.22
2023-04-29T23:57:06.908Z,98452.31
